Atherton, California
Current Conditions -  °F | °C
As of 8:47 AM on Thursday 30 Oct 2014 (Local Time) from KPAO Reporting Station
Broken Clouds Broken Clouds  
Wind Chill: 59°   Ceiling: 20000
Heat Index: 59°   Visibility: 12mi
Dew Point: 52°   Wind: 5mph
Humidity: 77%   Direction: NA
Pressure: 29.95"   Gusts: NA
Location:  37.46°N, 122.19°W
Report Text: KPAO 301547Z VRB04KT 12SM BKN200 15/11 A2995
Loading
Personal Weather Stations






























Interactive Weather Map
Tropical Storm Tracking
New forecast layout! Learn more

10-Day Weather Forecast

Advertisements
Track Severe Weather on mobile